EZY3547 EGPH-LKPR
Flight info
| Callsign | EZY3547 |
|---|---|
| Flight time | 2h 20m |
| Altitude | 39000 |
| Route | TLA Y96 OTBUN DCT ERKIT N110 DOLAS L603 LAMSO DCT PETIK DCT DENOL DCT NOMKA L620 PIKIB T620 LALUK DCT GOLOP |
| Aircraft | A20N/M-SDE2E3FGHIRWXY/LB1 |
Departure
| Time | 2026-04-24 01:41 |
|---|---|
| Airport | Edinburgh Airport (EGPH) |
Arrival
| Time | 2026-04-24 04:01 |
|---|---|
| Airport | Václav Havel Airport Prague (LKPR) |
| Time | Latitude | Longitude | Altitude | Speed | Heading |
|---|---|---|---|---|---|
| 2026-04-24 00:56 | 55.95215 | -3.35589 | 112 ft | 0 kts | 28° |
| 2026-04-24 01:23 | 55.95212 | -3.35591 | 109 ft | 0 kts | 28° |
| 2026-04-24 01:23 | 55.95210 | -3.35594 | 109 ft | 0 kts | 29° |
| 2026-04-24 01:24 | 55.95206 | -3.35597 | 109 ft | 1 kts | 28° |
| 2026-04-24 01:24 | 55.95198 | -3.35605 | 108 ft | 1 kts | 28° |
| 2026-04-24 01:24 | 55.95193 | -3.35610 | 109 ft | 1 kts | 24° |
| 2026-04-24 01:25 | 55.95182 | -3.35616 | 108 ft | 1 kts | 355° |
| 2026-04-24 01:25 | 55.95178 | -3.35616 | 108 ft | 0 kts | 346° |
| 2026-04-24 01:30 | 55.95180 | -3.35616 | 108 ft | 1 kts | 346° |
| 2026-04-24 01:30 | 55.95181 | -3.35621 | 108 ft | 0 kts | 322° |
| 2026-04-24 01:30 | 55.95184 | -3.35637 | 110 ft | 3 kts | 287° |
| 2026-04-24 01:31 | 55.95191 | -3.35679 | 111 ft | 8 kts | 288° |
| 2026-04-24 01:31 | 55.95203 | -3.35719 | 109 ft | 4 kts | 297° |
| 2026-04-24 01:31 | 55.95230 | -3.35792 | 110 ft | 9 kts | 313° |
| 2026-04-24 01:31 | 55.95260 | -3.35904 | 106 ft | 12 kts | 259° |
| 2026-04-24 01:32 | 55.95206 | -3.36062 | 105 ft | 14 kts | 239° |
| 2026-04-24 01:32 | 55.95175 | -3.36159 | 107 ft | 5 kts | 239° |
| 2026-04-24 01:32 | 55.95167 | -3.36182 | 108 ft | 4 kts | 239° |
| 2026-04-24 01:32 | 55.95144 | -3.36251 | 109 ft | 10 kts | 238° |
| 2026-04-24 01:33 | 55.95097 | -3.36390 | 110 ft | 15 kts | 238° |
| 2026-04-24 01:33 | 55.95038 | -3.36565 | 112 ft | 19 kts | 238° |
| 2026-04-24 01:33 | 55.94961 | -3.36790 | 110 ft | 23 kts | 239° |
| 2026-04-24 01:33 | 55.94869 | -3.37064 | 108 ft | 25 kts | 240° |
| 2026-04-24 01:34 | 55.94800 | -3.37264 | 109 ft | 15 kts | 238° |
| 2026-04-24 01:34 | 55.94785 | -3.37310 | 110 ft | 0 kts | 238° |
| 2026-04-24 01:35 | 55.94779 | -3.37326 | 111 ft | 4 kts | 239° |
| 2026-04-24 01:36 | 55.94759 | -3.37388 | 112 ft | 8 kts | 239° |
| 2026-04-24 01:36 | 55.94719 | -3.37508 | 114 ft | 14 kts | 239° |
| 2026-04-24 01:36 | 55.94659 | -3.37682 | 115 ft | 18 kts | 239° |
| 2026-04-24 01:36 | 55.94582 | -3.37910 | 114 ft | 24 kts | 238° |
| 2026-04-24 01:37 | 55.94514 | -3.38108 | 113 ft | 20 kts | 239° |
| 2026-04-24 01:37 | 55.94487 | -3.38188 | 113 ft | 0 kts | 239° |
| 2026-04-24 01:37 | 55.94485 | -3.38194 | 114 ft | 3 kts | 239° |
| 2026-04-24 01:37 | 55.94464 | -3.38257 | 114 ft | 9 kts | 239° |
| 2026-04-24 01:38 | 55.94422 | -3.38379 | 116 ft | 14 kts | 238° |
| 2026-04-24 01:38 | 55.94367 | -3.38541 | 117 ft | 10 kts | 239° |
| 2026-04-24 01:38 | 55.94360 | -3.38564 | 119 ft | 4 kts | 239° |
| 2026-04-24 01:38 | 55.94338 | -3.38628 | 117 ft | 8 kts | 239° |
| 2026-04-24 01:39 | 55.94299 | -3.38745 | 118 ft | 7 kts | 239° |
| 2026-04-24 01:39 | 55.94287 | -3.38827 | 123 ft | 9 kts | 274° |
| 2026-04-24 01:39 | 55.94332 | -3.38911 | 123 ft | 13 kts | 330° |
| 2026-04-24 01:39 | 55.94362 | -3.38943 | 121 ft | 3 kts | 328° |
| 2026-04-24 01:40 | 55.94410 | -3.38959 | 121 ft | 9 kts | 15° |
| 2026-04-24 01:40 | 55.94453 | -3.38851 | 121 ft | 15 kts | 58° |
| 2026-04-24 01:40 | 55.94542 | -3.38590 | 115 ft | 51 kts | 60° |
| 2026-04-24 01:40 | 55.94879 | -3.37593 | 112 ft | 142 kts | 59° |
| 2026-04-24 01:41 | 55.95530 | -3.35673 | 237 ft | 208 kts | 59° |
| 2026-04-24 01:41 | 55.96273 | -3.33521 | 1042 ft | 221 kts | 58° |
| 2026-04-24 01:41 | 55.96646 | -3.32448 | 1599 ft | 225 kts | 58° |
| 2026-04-24 01:41 | 55.97504 | -3.30020 | 2834 ft | 244 kts | 58° |
| 2026-04-24 01:42 | 55.98354 | -3.27660 | 3984 ft | 253 kts | 58° |
| 2026-04-24 01:42 | 55.99364 | -3.25141 | 5407 ft | 250 kts | 44° |
| 2026-04-24 01:42 | 56.00845 | -3.23460 | 6917 ft | 255 kts | 24° |
| 2026-04-24 01:42 | 56.02528 | -3.22132 | 7874 ft | 277 kts | 25° |
| 2026-04-24 01:43 | 56.04229 | -3.20411 | 9172 ft | 284 kts | 32° |
| 2026-04-24 01:43 | 56.05659 | -3.17968 | 10506 ft | 293 kts | 55° |
| 2026-04-24 01:43 | 56.06497 | -3.14462 | 11332 ft | 319 kts | 78° |
| 2026-04-24 01:43 | 56.06505 | -3.10376 | 12039 ft | 343 kts | 102° |
| 2026-04-24 01:44 | 56.05579 | -3.06395 | 13063 ft | 352 kts | 125° |
| 2026-04-24 01:44 | 56.03888 | -3.03309 | 14268 ft | 356 kts | 146° |
| 2026-04-24 01:44 | 56.01841 | -3.01551 | 15266 ft | 359 kts | 165° |
| 2026-04-24 01:44 | 55.99328 | -3.00697 | 16361 ft | 364 kts | 169° |
| 2026-04-24 01:45 | 55.96903 | -2.99463 | 17413 ft | 370 kts | 159° |
| 2026-04-24 01:45 | 55.94438 | -2.98078 | 18480 ft | 376 kts | 171° |
| 2026-04-24 01:45 | 55.91812 | -2.98075 | 19426 ft | 381 kts | 189° |
| 2026-04-24 01:45 | 55.89289 | -2.99540 | 20348 ft | 386 kts | 207° |
| 2026-04-24 01:46 | 55.87091 | -3.02306 | 21248 ft | 392 kts | 221° |
| 2026-04-24 01:46 | 55.85035 | -3.05559 | 22145 ft | 398 kts | 219° |
| 2026-04-24 01:46 | 55.82807 | -3.08479 | 23031 ft | 403 kts | 213° |
| 2026-04-24 01:46 | 55.80361 | -3.11015 | 23884 ft | 409 kts | 207° |
| 2026-04-24 01:47 | 55.77963 | -3.13132 | 24564 ft | 414 kts | 205° |
| 2026-04-24 01:47 | 55.75356 | -3.15253 | 25280 ft | 418 kts | 204° |
| 2026-04-24 01:47 | 55.72672 | -3.17372 | 25973 ft | 423 kts | 204° |
| 2026-04-24 01:47 | 55.69975 | -3.19488 | 26573 ft | 430 kts | 204° |
| 2026-04-24 01:48 | 55.67218 | -3.21656 | 26765 ft | 445 kts | 204° |
| 2026-04-24 01:48 | 55.65031 | -3.23351 | 26871 ft | 457 kts | 201° |
| 2026-04-24 01:48 | 55.64316 | -3.23820 | 26895 ft | 460 kts | 198° |
| 2026-04-24 01:48 | 55.61401 | -3.25044 | 26991 ft | 470 kts | 188° |
| 2026-04-24 01:49 | 55.58081 | -3.25275 | 27007 ft | 484 kts | 176° |
| 2026-04-24 01:49 | 55.54730 | -3.24321 | 26997 ft | 493 kts | 164° |
| 2026-04-24 01:49 | 55.51517 | -3.22204 | 26996 ft | 498 kts | 154° |
| 2026-04-24 01:49 | 55.48574 | -3.19006 | 27000 ft | 500 kts | 142° |
| 2026-04-24 01:50 | 55.46007 | -3.14815 | 26998 ft | 501 kts | 130° |
| 2026-04-24 01:50 | 55.43980 | -3.09907 | 26998 ft | 483 kts | 119° |
| 2026-04-24 01:50 | 55.42747 | -3.05293 | 26996 ft | 453 kts | 102° |
| 2026-04-24 01:50 | 55.42022 | -2.99966 | 26992 ft | 424 kts | 95° |
| 2026-04-24 01:51 | 55.41941 | -2.94875 | 27002 ft | 417 kts | 89° |
| 2026-04-24 01:51 | 55.41706 | -2.89759 | 26998 ft | 422 kts | 99° |
| 2026-04-24 01:51 | 55.40923 | -2.84742 | 27004 ft | 423 kts | 109° |
| 2026-04-24 01:51 | 55.39736 | -2.79889 | 27001 ft | 424 kts | 115° |
| 2026-04-24 01:52 | 55.38885 | -2.76957 | 27000 ft | 424 kts | 116° |
| 2026-04-24 01:52 | 55.37416 | -2.72265 | 27000 ft | 424 kts | 118° |
| 2026-04-24 01:52 | 55.35954 | -2.67742 | 27132 ft | 428 kts | 118° |
| 2026-04-24 01:52 | 55.34490 | -2.63237 | 27816 ft | 430 kts | 118° |
| 2026-04-24 01:53 | 55.32987 | -2.58602 | 28474 ft | 433 kts | 118° |
| 2026-04-24 01:53 | 55.31494 | -2.53988 | 29067 ft | 437 kts | 118° |
| 2026-04-24 01:53 | 55.30043 | -2.49518 | 29590 ft | 441 kts | 119° |
| 2026-04-24 01:53 | 55.28288 | -2.45063 | 30136 ft | 447 kts | 127° |
| 2026-04-24 01:54 | 55.26185 | -2.41071 | 30641 ft | 454 kts | 135° |
| 2026-04-24 01:54 | 55.23746 | -2.37558 | 31090 ft | 459 kts | 141° |
| 2026-04-24 01:54 | 55.21158 | -2.34197 | 31586 ft | 462 kts | 141° |
| 2026-04-24 01:54 | 55.18585 | -2.30798 | 32138 ft | 463 kts | 141° |
| 2026-04-24 01:55 | 55.16013 | -2.27386 | 32766 ft | 462 kts | 140° |
| 2026-04-24 01:55 | 55.13459 | -2.24000 | 33391 ft | 461 kts | 140° |
| 2026-04-24 01:55 | 55.11052 | -2.20817 | 33978 ft | 460 kts | 140° |
| 2026-04-24 01:55 | 55.08512 | -2.17466 | 34565 ft | 459 kts | 141° |
| 2026-04-24 01:56 | 55.06052 | -2.14220 | 35096 ft | 458 kts | 140° |
| 2026-04-24 01:56 | 55.03609 | -2.10999 | 35607 ft | 455 kts | 143° |
| 2026-04-24 01:56 | 55.01190 | -2.07826 | 35982 ft | 455 kts | 141° |
| 2026-04-24 01:56 | 54.98773 | -2.04666 | 36445 ft | 454 kts | 141° |
| 2026-04-24 01:57 | 54.96510 | -2.01697 | 36894 ft | 452 kts | 141° |
| 2026-04-24 01:57 | 54.93995 | -1.98404 | 37389 ft | 451 kts | 142° |
| 2026-04-24 01:57 | 54.91507 | -1.95155 | 37865 ft | 450 kts | 142° |
| 2026-04-24 01:57 | 54.89023 | -1.91921 | 38322 ft | 449 kts | 142° |
| 2026-04-24 01:58 | 54.86567 | -1.88728 | 38774 ft | 448 kts | 142° |
| 2026-04-24 01:58 | 54.84065 | -1.85483 | 38967 ft | 447 kts | 142° |
| 2026-04-24 01:58 | 54.81908 | -1.82688 | 39005 ft | 445 kts | 142° |
| 2026-04-24 01:59 | 54.76955 | -1.76286 | 39002 ft | 445 kts | 142° |
| 2026-04-24 01:59 | 54.72058 | -1.69974 | 39002 ft | 444 kts | 142° |
| 2026-04-24 02:00 | 54.67185 | -1.63713 | 39005 ft | 444 kts | 142° |
| 2026-04-24 02:00 | 54.62517 | -1.57733 | 38997 ft | 443 kts | 143° |
| 2026-04-24 02:01 | 54.57559 | -1.51400 | 38991 ft | 443 kts | 143° |
| 2026-04-24 02:01 | 54.52593 | -1.45079 | 39007 ft | 443 kts | 143° |
| 2026-04-24 02:02 | 54.47664 | -1.38823 | 38991 ft | 442 kts | 143° |
| 2026-04-24 02:02 | 54.42731 | -1.32581 | 38996 ft | 442 kts | 143° |
| 2026-04-24 02:03 | 54.35954 | -1.24036 | 39009 ft | 441 kts | 143° |
| 2026-04-24 02:03 | 54.31029 | -1.17849 | 39000 ft | 441 kts | 143° |
| 2026-04-24 02:04 | 54.26060 | -1.11625 | 38990 ft | 441 kts | 143° |
| 2026-04-24 02:04 | 54.21136 | -1.05477 | 39015 ft | 440 kts | 143° |
| 2026-04-24 02:05 | 54.16617 | -0.99850 | 39013 ft | 440 kts | 144° |
| 2026-04-24 02:05 | 54.12087 | -0.94226 | 39001 ft | 440 kts | 144° |
| 2026-04-24 02:06 | 54.07181 | -0.88151 | 38994 ft | 439 kts | 144° |
| 2026-04-24 02:06 | 54.02207 | -0.82008 | 39011 ft | 438 kts | 144° |
| 2026-04-24 02:07 | 53.97208 | -0.76119 | 39020 ft | 438 kts | 146° |
| 2026-04-24 02:07 | 53.92182 | -0.70285 | 38987 ft | 437 kts | 146° |
| 2026-04-24 02:08 | 53.87196 | -0.64473 | 39005 ft | 437 kts | 146° |
| 2026-04-24 02:08 | 53.83025 | -0.59615 | 39006 ft | 436 kts | 146° |
| 2026-04-24 02:09 | 53.78117 | -0.53913 | 38999 ft | 435 kts | 146° |
| 2026-04-24 02:09 | 53.73130 | -0.48134 | 38987 ft | 434 kts | 146° |
| 2026-04-24 02:10 | 53.68183 | -0.42419 | 39001 ft | 434 kts | 146° |
| 2026-04-24 02:10 | 53.64055 | -0.37660 | 38994 ft | 434 kts | 148° |
| 2026-04-24 02:11 | 53.59268 | -0.31976 | 39010 ft | 436 kts | 141° |
| 2026-04-24 02:11 | 53.55108 | -0.24692 | 38988 ft | 436 kts | 128° |
| 2026-04-24 02:12 | 53.51864 | -0.17279 | 38977 ft | 436 kts | 128° |
| 2026-04-24 02:12 | 53.48164 | -0.09073 | 39000 ft | 435 kts | 128° |
| 2026-04-24 02:13 | 53.44482 | -0.00940 | 38994 ft | 435 kts | 128° |
| 2026-04-24 02:13 | 53.40865 | 0.07043 | 38982 ft | 434 kts | 129° |
| 2026-04-24 02:14 | 53.37927 | 0.13512 | 38975 ft | 433 kts | 129° |
| 2026-04-24 02:14 | 53.34290 | 0.21498 | 38991 ft | 433 kts | 129° |
| 2026-04-24 02:15 | 53.31754 | 0.27050 | 38979 ft | 432 kts | 129° |
| 2026-04-24 02:15 | 53.28316 | 0.34554 | 38982 ft | 431 kts | 129° |
| 2026-04-24 02:16 | 53.25105 | 0.41529 | 38989 ft | 431 kts | 129° |
| 2026-04-24 02:16 | 53.21424 | 0.49523 | 38979 ft | 430 kts | 129° |
| 2026-04-24 02:17 | 53.17781 | 0.57418 | 38981 ft | 429 kts | 130° |
| 2026-04-24 02:17 | 53.14219 | 0.65106 | 38981 ft | 429 kts | 130° |
| 2026-04-24 02:18 | 53.10537 | 0.73017 | 38983 ft | 429 kts | 130° |
| 2026-04-24 02:18 | 53.06905 | 0.80801 | 38974 ft | 428 kts | 130° |
| 2026-04-24 02:19 | 53.03254 | 0.88604 | 38981 ft | 427 kts | 130° |
| 2026-04-24 02:19 | 52.99674 | 0.96408 | 38974 ft | 429 kts | 125° |
| 2026-04-24 02:20 | 52.97255 | 1.05489 | 38976 ft | 435 kts | 107° |
| 2026-04-24 02:20 | 52.96111 | 1.15431 | 38973 ft | 437 kts | 104° |
| 2026-04-24 02:21 | 52.94973 | 1.25270 | 38975 ft | 436 kts | 104° |
| 2026-04-24 02:21 | 52.93848 | 1.34830 | 38975 ft | 436 kts | 104° |
| 2026-04-24 02:22 | 52.92773 | 1.43953 | 38973 ft | 436 kts | 105° |
| 2026-04-24 02:22 | 52.91708 | 1.52925 | 38977 ft | 436 kts | 105° |
| 2026-04-24 02:23 | 52.90540 | 1.62704 | 38961 ft | 436 kts | 105° |
| 2026-04-24 02:23 | 52.89370 | 1.72434 | 38967 ft | 435 kts | 105° |
| 2026-04-24 02:24 | 52.88166 | 1.82367 | 38972 ft | 435 kts | 105° |
| 2026-04-24 02:24 | 52.86971 | 1.92152 | 38952 ft | 435 kts | 105° |
| 2026-04-24 02:25 | 52.85767 | 2.01939 | 38986 ft | 434 kts | 105° |
| 2026-04-24 02:25 | 52.84554 | 2.11732 | 38959 ft | 435 kts | 106° |
| 2026-04-24 02:26 | 52.83331 | 2.21515 | 38942 ft | 434 kts | 106° |
| 2026-04-24 02:26 | 52.82110 | 2.31209 | 38973 ft | 434 kts | 106° |
| 2026-04-24 02:27 | 52.81122 | 2.39011 | 38936 ft | 434 kts | 106° |
| 2026-04-24 02:27 | 52.79907 | 2.48567 | 38976 ft | 434 kts | 106° |
| 2026-04-24 02:28 | 52.78799 | 2.57215 | 38958 ft | 434 kts | 107° |
| 2026-04-24 02:28 | 52.77526 | 2.67062 | 38972 ft | 434 kts | 106° |
| 2026-04-24 02:29 | 52.76264 | 2.76770 | 38956 ft | 435 kts | 106° |
| 2026-04-24 02:29 | 52.74986 | 2.86540 | 38941 ft | 434 kts | 106° |
| 2026-04-24 02:30 | 52.73715 | 2.96214 | 38958 ft | 435 kts | 106° |
| 2026-04-24 02:30 | 52.72701 | 3.05736 | 38942 ft | 437 kts | 102° |
| 2026-04-24 02:31 | 52.71804 | 3.15609 | 38947 ft | 437 kts | 103° |
| 2026-04-24 02:31 | 52.70887 | 3.25473 | 38940 ft | 437 kts | 103° |
| 2026-04-24 02:32 | 52.69954 | 3.35404 | 38938 ft | 437 kts | 103° |
| 2026-04-24 02:32 | 52.69007 | 3.45386 | 38936 ft | 437 kts | 103° |
| 2026-04-24 02:33 | 52.68074 | 3.55138 | 38937 ft | 437 kts | 103° |
| 2026-04-24 02:33 | 52.67149 | 3.64718 | 38936 ft | 437 kts | 103° |
| 2026-04-24 02:34 | 52.66198 | 3.74485 | 38940 ft | 437 kts | 103° |
| 2026-04-24 02:34 | 52.65450 | 3.82102 | 38935 ft | 438 kts | 103° |
| 2026-04-24 02:35 | 52.64462 | 3.92088 | 38936 ft | 438 kts | 103° |
| 2026-04-24 02:35 | 52.63475 | 4.01970 | 38936 ft | 438 kts | 103° |
| 2026-04-24 02:36 | 52.62482 | 4.11829 | 38932 ft | 437 kts | 103° |
| 2026-04-24 02:36 | 52.61480 | 4.21700 | 38931 ft | 438 kts | 103° |
| 2026-04-24 02:37 | 52.60340 | 4.31419 | 38912 ft | 437 kts | 105° |
| 2026-04-24 02:37 | 52.59122 | 4.40988 | 38911 ft | 437 kts | 105° |
| 2026-04-24 02:38 | 52.57927 | 4.50634 | 38938 ft | 437 kts | 105° |
| 2026-04-24 02:38 | 52.56726 | 4.60339 | 38919 ft | 437 kts | 105° |
| 2026-04-24 02:39 | 52.55518 | 4.70026 | 38898 ft | 437 kts | 105° |
| 2026-04-24 02:39 | 52.54282 | 4.79844 | 38904 ft | 437 kts | 105° |
| 2026-04-24 02:40 | 52.53109 | 4.89097 | 38931 ft | 437 kts | 105° |
| 2026-04-24 02:40 | 52.52031 | 4.97534 | 38912 ft | 437 kts | 105° |
| 2026-04-24 02:41 | 52.50766 | 5.07386 | 38935 ft | 437 kts | 105° |
| 2026-04-24 02:41 | 52.49499 | 5.17183 | 38890 ft | 438 kts | 105° |
| 2026-04-24 02:42 | 52.48249 | 5.26784 | 38904 ft | 437 kts | 105° |
| 2026-04-24 02:42 | 52.47075 | 5.35742 | 38908 ft | 437 kts | 105° |
| 2026-04-24 02:43 | 52.45792 | 5.45458 | 38935 ft | 438 kts | 105° |
| 2026-04-24 02:43 | 52.44503 | 5.55160 | 38910 ft | 439 kts | 105° |
| 2026-04-24 02:44 | 52.43183 | 5.65031 | 38911 ft | 438 kts | 105° |
| 2026-04-24 02:44 | 52.41997 | 5.73835 | 38914 ft | 439 kts | 105° |
| 2026-04-24 02:45 | 52.40679 | 5.83564 | 38926 ft | 440 kts | 105° |
| 2026-04-24 02:45 | 52.39341 | 5.93340 | 38886 ft | 440 kts | 105° |
| 2026-04-24 02:46 | 52.37999 | 6.03100 | 38903 ft | 440 kts | 105° |
| 2026-04-24 02:46 | 52.36653 | 6.12850 | 38908 ft | 441 kts | 105° |
| 2026-04-24 02:47 | 52.35335 | 6.22332 | 38884 ft | 441 kts | 105° |
| 2026-04-24 02:47 | 52.33995 | 6.31913 | 38876 ft | 441 kts | 105° |
| 2026-04-24 02:48 | 52.32620 | 6.41695 | 38914 ft | 442 kts | 105° |
| 2026-04-24 02:48 | 52.31291 | 6.51072 | 38916 ft | 442 kts | 105° |
| 2026-04-24 02:49 | 52.29903 | 6.60798 | 38876 ft | 443 kts | 105° |
| 2026-04-24 02:49 | 52.28502 | 6.70555 | 38896 ft | 442 kts | 105° |
| 2026-04-24 02:50 | 52.27153 | 6.79896 | 38899 ft | 443 kts | 105° |
| 2026-04-24 02:50 | 52.25733 | 6.89659 | 38878 ft | 443 kts | 105° |
| 2026-04-24 02:51 | 52.24304 | 6.99429 | 38896 ft | 443 kts | 105° |
| 2026-04-24 02:51 | 52.22866 | 7.09194 | 38883 ft | 444 kts | 105° |
| 2026-04-24 02:52 | 52.21462 | 7.18676 | 38874 ft | 444 kts | 105° |
| 2026-04-24 02:52 | 52.20007 | 7.28425 | 38896 ft | 444 kts | 105° |
| 2026-04-24 02:53 | 52.18522 | 7.38311 | 38876 ft | 445 kts | 105° |
| 2026-04-24 02:53 | 52.17060 | 7.47993 | 38885 ft | 445 kts | 105° |
| 2026-04-24 02:54 | 52.15574 | 7.57784 | 38899 ft | 445 kts | 105° |
| 2026-04-24 02:54 | 52.14367 | 7.65691 | 38896 ft | 446 kts | 105° |
| 2026-04-24 02:55 | 52.12983 | 7.74717 | 38891 ft | 446 kts | 105° |
| 2026-04-24 02:55 | 52.11477 | 7.84476 | 38847 ft | 446 kts | 105° |
| 2026-04-24 02:56 | 52.09994 | 7.94030 | 38873 ft | 446 kts | 105° |
| 2026-04-24 02:56 | 52.08461 | 8.03846 | 38867 ft | 447 kts | 105° |
| 2026-04-24 02:57 | 52.07078 | 8.12646 | 38853 ft | 447 kts | 105° |
| 2026-04-24 02:57 | 52.05502 | 8.22626 | 38855 ft | 447 kts | 105° |
| 2026-04-24 02:58 | 52.03956 | 8.32348 | 38870 ft | 447 kts | 105° |
| 2026-04-24 02:58 | 52.02397 | 8.42102 | 38845 ft | 447 kts | 105° |
| 2026-04-24 02:59 | 52.00837 | 8.51809 | 38860 ft | 447 kts | 105° |
| 2026-04-24 02:59 | 51.99278 | 8.61479 | 38851 ft | 448 kts | 105° |
| 2026-04-24 03:00 | 51.97249 | 8.71225 | 38844 ft | 448 kts | 115° |
| 2026-04-24 03:00 | 51.94630 | 8.80290 | 38850 ft | 448 kts | 115° |
| 2026-04-24 03:01 | 51.92036 | 8.89485 | 38840 ft | 449 kts | 115° |
| 2026-04-24 03:01 | 51.89437 | 8.98632 | 38845 ft | 449 kts | 115° |
| 2026-04-24 03:02 | 51.86936 | 9.07380 | 38841 ft | 450 kts | 115° |
| 2026-04-24 03:02 | 51.84254 | 9.16718 | 38818 ft | 450 kts | 115° |
| 2026-04-24 03:03 | 51.81625 | 9.25847 | 38835 ft | 451 kts | 115° |
| 2026-04-24 03:03 | 51.78988 | 9.34963 | 38823 ft | 450 kts | 115° |
| 2026-04-24 03:04 | 51.76791 | 9.42533 | 38819 ft | 450 kts | 115° |
| 2026-04-24 03:04 | 51.74124 | 9.51687 | 38808 ft | 450 kts | 115° |
| 2026-04-24 03:05 | 51.71247 | 9.61525 | 38812 ft | 450 kts | 115° |
| 2026-04-24 03:05 | 51.68574 | 9.70624 | 38590 ft | 446 kts | 115° |
| 2026-04-24 03:06 | 51.67262 | 9.75079 | 38090 ft | 443 kts | 115° |
| 2026-04-24 03:06 | 51.66429 | 9.77903 | 37733 ft | 440 kts | 114° |
| 2026-04-24 03:06 | 51.65046 | 9.82584 | 37102 ft | 436 kts | 114° |
| 2026-04-24 03:06 | 51.63726 | 9.87040 | 36523 ft | 433 kts | 114° |
| 2026-04-24 03:07 | 51.62432 | 9.91402 | 35973 ft | 429 kts | 114° |
| 2026-04-24 03:07 | 51.61702 | 9.93860 | 35667 ft | 427 kts | 114° |
| 2026-04-24 03:07 | 51.60432 | 9.98129 | 35135 ft | 423 kts | 114° |
| 2026-04-24 03:07 | 51.59185 | 10.02318 | 34633 ft | 420 kts | 114° |
| 2026-04-24 03:08 | 51.57946 | 10.06469 | 34107 ft | 417 kts | 114° |
| 2026-04-24 03:08 | 51.55449 | 10.14823 | 32986 ft | 410 kts | 114° |
| 2026-04-24 03:08 | 51.54223 | 10.18909 | 32441 ft | 406 kts | 114° |
| 2026-04-24 03:09 | 51.53494 | 10.21337 | 32116 ft | 404 kts | 114° |
| 2026-04-24 03:09 | 51.52663 | 10.24087 | 31753 ft | 402 kts | 114° |
| 2026-04-24 03:09 | 51.51457 | 10.28084 | 31277 ft | 398 kts | 114° |
| 2026-04-24 03:09 | 51.50251 | 10.32101 | 30746 ft | 395 kts | 114° |
| 2026-04-24 03:10 | 51.49060 | 10.36058 | 30247 ft | 392 kts | 114° |
| 2026-04-24 03:10 | 51.47876 | 10.39977 | 29677 ft | 389 kts | 114° |
| 2026-04-24 03:10 | 51.46701 | 10.43855 | 29120 ft | 385 kts | 114° |
| 2026-04-24 03:10 | 51.45536 | 10.47691 | 28551 ft | 383 kts | 114° |
| 2026-04-24 03:11 | 51.44535 | 10.51616 | 28014 ft | 377 kts | 105° |
| 2026-04-24 03:11 | 51.43888 | 10.55690 | 27483 ft | 374 kts | 101° |
| 2026-04-24 03:11 | 51.43303 | 10.59526 | 27000 ft | 371 kts | 101° |
| 2026-04-24 03:11 | 51.42650 | 10.63690 | 26473 ft | 368 kts | 102° |
| 2026-04-24 03:12 | 51.42020 | 10.67668 | 25968 ft | 366 kts | 101° |
| 2026-04-24 03:12 | 51.41396 | 10.71589 | 25480 ft | 363 kts | 101° |
| 2026-04-24 03:12 | 51.40770 | 10.75512 | 25006 ft | 361 kts | 101° |
| 2026-04-24 03:12 | 51.40152 | 10.79375 | 24537 ft | 358 kts | 101° |
| 2026-04-24 03:13 | 51.39563 | 10.83048 | 24099 ft | 356 kts | 101° |
| 2026-04-24 03:13 | 51.38984 | 10.86649 | 23638 ft | 354 kts | 101° |
| 2026-04-24 03:13 | 51.38372 | 10.90457 | 23129 ft | 352 kts | 101° |
| 2026-04-24 03:13 | 51.37776 | 10.94154 | 22627 ft | 350 kts | 101° |
| 2026-04-24 03:14 | 51.37154 | 10.98002 | 22114 ft | 348 kts | 101° |
| 2026-04-24 03:14 | 51.36546 | 11.01752 | 21645 ft | 345 kts | 101° |
| 2026-04-24 03:14 | 51.35952 | 11.05407 | 21161 ft | 343 kts | 101° |
| 2026-04-24 03:14 | 51.35351 | 11.09101 | 20703 ft | 341 kts | 100° |
| 2026-04-24 03:15 | 51.34753 | 11.12763 | 20247 ft | 339 kts | 100° |
| 2026-04-24 03:15 | 51.34159 | 11.16393 | 19928 ft | 334 kts | 100° |
| 2026-04-24 03:15 | 51.33570 | 11.19986 | 19791 ft | 337 kts | 100° |
| 2026-04-24 03:15 | 51.32971 | 11.23644 | 19764 ft | 338 kts | 100° |
| 2026-04-24 03:16 | 51.32383 | 11.27220 | 19765 ft | 337 kts | 100° |
| 2026-04-24 03:16 | 51.31784 | 11.30864 | 19764 ft | 337 kts | 100° |
| 2026-04-24 03:16 | 51.31198 | 11.34439 | 19762 ft | 337 kts | 100° |
| 2026-04-24 03:16 | 51.30603 | 11.38062 | 19761 ft | 337 kts | 100° |
| 2026-04-24 03:17 | 51.30018 | 11.41621 | 19758 ft | 337 kts | 100° |
| 2026-04-24 03:17 | 51.29420 | 11.45242 | 19763 ft | 336 kts | 100° |
| 2026-04-24 03:17 | 51.28820 | 11.48862 | 19762 ft | 336 kts | 100° |
| 2026-04-24 03:17 | 51.28217 | 11.52430 | 19759 ft | 336 kts | 100° |
| 2026-04-24 03:18 | 51.27601 | 11.56036 | 19759 ft | 336 kts | 101° |
| 2026-04-24 03:18 | 51.26993 | 11.59633 | 19764 ft | 336 kts | 100° |
| 2026-04-24 03:18 | 51.26387 | 11.63238 | 19760 ft | 336 kts | 100° |
| 2026-04-24 03:18 | 51.25780 | 11.66855 | 19761 ft | 336 kts | 100° |
| 2026-04-24 03:19 | 51.25178 | 11.70427 | 19760 ft | 336 kts | 100° |
| 2026-04-24 03:19 | 51.24569 | 11.74030 | 19760 ft | 336 kts | 100° |
| 2026-04-24 03:19 | 51.23985 | 11.77480 | 19759 ft | 335 kts | 100° |
| 2026-04-24 03:19 | 51.23373 | 11.81085 | 19760 ft | 335 kts | 100° |
| 2026-04-24 03:20 | 51.22763 | 11.84671 | 19758 ft | 336 kts | 100° |
| 2026-04-24 03:20 | 51.22149 | 11.88270 | 19755 ft | 335 kts | 100° |
| 2026-04-24 03:20 | 51.21541 | 11.91828 | 19760 ft | 336 kts | 100° |
| 2026-04-24 03:20 | 51.20932 | 11.95388 | 19756 ft | 336 kts | 100° |
| 2026-04-24 03:21 | 51.20299 | 11.99089 | 19756 ft | 336 kts | 100° |
| 2026-04-24 03:21 | 51.19695 | 12.02615 | 19754 ft | 335 kts | 100° |
| 2026-04-24 03:21 | 51.19077 | 12.06225 | 19756 ft | 335 kts | 100° |
| 2026-04-24 03:21 | 51.18474 | 12.09733 | 19754 ft | 335 kts | 100° |
| 2026-04-24 03:22 | 51.17844 | 12.13380 | 19753 ft | 335 kts | 100° |
| 2026-04-24 03:22 | 51.17224 | 12.16966 | 19751 ft | 335 kts | 100° |
| 2026-04-24 03:22 | 51.16594 | 12.20603 | 19753 ft | 335 kts | 100° |
| 2026-04-24 03:22 | 51.15982 | 12.24130 | 19751 ft | 335 kts | 100° |
| 2026-04-24 03:23 | 51.15450 | 12.27174 | 19752 ft | 335 kts | 101° |
| 2026-04-24 03:23 | 51.14964 | 12.29928 | 19752 ft | 335 kts | 101° |
| 2026-04-24 03:23 | 51.14333 | 12.33513 | 19750 ft | 335 kts | 101° |
| 2026-04-24 03:23 | 51.13704 | 12.37085 | 19751 ft | 336 kts | 101° |
| 2026-04-24 03:24 | 51.13084 | 12.40596 | 19753 ft | 336 kts | 101° |
| 2026-04-24 03:24 | 51.12443 | 12.44212 | 19753 ft | 336 kts | 101° |
| 2026-04-24 03:24 | 51.11807 | 12.47794 | 19750 ft | 336 kts | 101° |
| 2026-04-24 03:24 | 51.11176 | 12.51341 | 19750 ft | 336 kts | 101° |
| 2026-04-24 03:25 | 51.10539 | 12.54917 | 19753 ft | 336 kts | 101° |
| 2026-04-24 03:25 | 51.09904 | 12.58470 | 19751 ft | 336 kts | 101° |
| 2026-04-24 03:25 | 51.09265 | 12.62046 | 19753 ft | 336 kts | 101° |
| 2026-04-24 03:25 | 51.08619 | 12.65641 | 19753 ft | 336 kts | 101° |
| 2026-04-24 03:26 | 51.07977 | 12.69211 | 19751 ft | 336 kts | 101° |
| 2026-04-24 03:26 | 51.07346 | 12.72715 | 19753 ft | 336 kts | 101° |
| 2026-04-24 03:26 | 51.06711 | 12.76230 | 19750 ft | 336 kts | 101° |
| 2026-04-24 03:26 | 51.06053 | 12.79865 | 19750 ft | 336 kts | 101° |
| 2026-04-24 03:27 | 51.05408 | 12.83424 | 19748 ft | 336 kts | 101° |
| 2026-04-24 03:27 | 51.04760 | 12.86990 | 19749 ft | 336 kts | 101° |
| 2026-04-24 03:27 | 51.04121 | 12.90490 | 19748 ft | 336 kts | 101° |
| 2026-04-24 03:27 | 51.03470 | 12.94056 | 19748 ft | 336 kts | 101° |
| 2026-04-24 03:28 | 51.02817 | 12.97624 | 19746 ft | 335 kts | 101° |
| 2026-04-24 03:28 | 51.02165 | 13.01181 | 19745 ft | 335 kts | 101° |
| 2026-04-24 03:28 | 51.01511 | 13.04746 | 19745 ft | 335 kts | 101° |
| 2026-04-24 03:28 | 51.00860 | 13.08289 | 19746 ft | 335 kts | 101° |
| 2026-04-24 03:29 | 51.00207 | 13.11838 | 19739 ft | 336 kts | 101° |
| 2026-04-24 03:29 | 50.99553 | 13.15387 | 19745 ft | 335 kts | 101° |
| 2026-04-24 03:29 | 50.98897 | 13.18944 | 19735 ft | 335 kts | 101° |
| 2026-04-24 03:29 | 50.98243 | 13.22484 | 19744 ft | 335 kts | 101° |
| 2026-04-24 03:30 | 50.97584 | 13.26035 | 19737 ft | 335 kts | 101° |
| 2026-04-24 03:30 | 50.96954 | 13.29421 | 19740 ft | 335 kts | 101° |
| 2026-04-24 03:30 | 50.96295 | 13.32962 | 19733 ft | 335 kts | 101° |
| 2026-04-24 03:30 | 50.95649 | 13.36526 | 19734 ft | 335 kts | 100° |
| 2026-04-24 03:31 | 50.95023 | 13.40071 | 19736 ft | 335 kts | 100° |
| 2026-04-24 03:31 | 50.94396 | 13.43630 | 19729 ft | 335 kts | 100° |
| 2026-04-24 03:31 | 50.93761 | 13.47205 | 19728 ft | 335 kts | 100° |
| 2026-04-24 03:31 | 50.93136 | 13.50695 | 19730 ft | 335 kts | 101° |
| 2026-04-24 03:32 | 50.92515 | 13.54042 | 19729 ft | 336 kts | 101° |
| 2026-04-24 03:32 | 50.92118 | 13.56149 | 19731 ft | 336 kts | 101° |
| 2026-04-24 03:32 | 50.91480 | 13.59461 | 19721 ft | 333 kts | 103° |
| 2026-04-24 03:32 | 50.90793 | 13.63019 | 19732 ft | 338 kts | 101° |
| 2026-04-24 03:33 | 50.90143 | 13.66566 | 19672 ft | 335 kts | 101° |
| 2026-04-24 03:33 | 50.89612 | 13.69138 | 19467 ft | 336 kts | 107° |
| 2026-04-24 03:36 | 50.88812 | 13.71709 | 19162 ft | 339 kts | 116° |
| 2026-04-24 03:36 | 50.88455 | 13.72605 | 19049 ft | 340 kts | 120° |
| 2026-04-24 03:37 | 50.87020 | 13.75455 | 18641 ft | 342 kts | 126° |
| 2026-04-24 03:37 | 50.85547 | 13.78217 | 18190 ft | 340 kts | 126° |
| 2026-04-24 03:37 | 50.84023 | 13.81132 | 17694 ft | 338 kts | 125° |
| 2026-04-24 03:37 | 50.82535 | 13.83996 | 17228 ft | 336 kts | 125° |
| 2026-04-24 03:38 | 50.81056 | 13.86843 | 16765 ft | 334 kts | 125° |
| 2026-04-24 03:38 | 50.79781 | 13.89806 | 16305 ft | 329 kts | 114° |
| 2026-04-24 03:38 | 50.78907 | 13.92372 | 15945 ft | 327 kts | 114° |
| 2026-04-24 03:38 | 50.77824 | 13.95501 | 15491 ft | 326 kts | 115° |
| 2026-04-24 03:39 | 50.76719 | 13.98650 | 15044 ft | 325 kts | 115° |
| 2026-04-24 03:39 | 50.75627 | 14.01745 | 14598 ft | 324 kts | 115° |
| 2026-04-24 03:39 | 50.74543 | 14.04809 | 14158 ft | 323 kts | 115° |
| 2026-04-24 03:39 | 50.73461 | 14.07864 | 13720 ft | 322 kts | 115° |
| 2026-04-24 03:40 | 50.72367 | 14.10952 | 13287 ft | 319 kts | 116° |
| 2026-04-24 03:40 | 50.71347 | 14.13830 | 12881 ft | 317 kts | 116° |
| 2026-04-24 03:40 | 50.70280 | 14.16838 | 12459 ft | 315 kts | 116° |
| 2026-04-24 03:40 | 50.69216 | 14.19827 | 12053 ft | 312 kts | 116° |
| 2026-04-24 03:41 | 50.68557 | 14.21677 | 11787 ft | 311 kts | 116° |
| 2026-04-24 03:41 | 50.67733 | 14.23987 | 11471 ft | 309 kts | 116° |
| 2026-04-24 03:42 | 50.66860 | 14.26435 | 11119 ft | 308 kts | 116° |
| 2026-04-24 03:42 | 50.66819 | 14.26550 | 11101 ft | 307 kts | 116° |
| 2026-04-24 03:42 | 50.66250 | 14.28149 | 10873 ft | 307 kts | 116° |
| 2026-04-24 03:43 | 50.66125 | 14.28503 | 10818 ft | 306 kts | 116° |
| 2026-04-24 03:43 | 50.65081 | 14.31433 | 10435 ft | 304 kts | 116° |
| 2026-04-24 03:43 | 50.64068 | 14.34269 | 10044 ft | 302 kts | 116° |
| 2026-04-24 03:43 | 50.63040 | 14.37144 | 9518 ft | 298 kts | 116° |
| 2026-04-24 03:44 | 50.62062 | 14.39876 | 8909 ft | 296 kts | 117° |
| 2026-04-24 03:44 | 50.61457 | 14.41568 | 8534 ft | 293 kts | 117° |
| 2026-04-24 03:44 | 50.60216 | 14.45034 | 7777 ft | 290 kts | 117° |
| 2026-04-24 03:44 | 50.59170 | 14.47773 | 7175 ft | 288 kts | 127° |
| 2026-04-24 03:45 | 50.57675 | 14.49728 | 6606 ft | 284 kts | 154° |
| 2026-04-24 03:45 | 50.55796 | 14.50547 | 6013 ft | 277 kts | 175° |
| 2026-04-24 03:45 | 50.54241 | 14.50721 | 5530 ft | 274 kts | 181° |
| 2026-04-24 03:45 | 50.52565 | 14.50800 | 5172 ft | 267 kts | 180° |
| 2026-04-24 03:46 | 50.51154 | 14.50895 | 5066 ft | 273 kts | 180° |
| 2026-04-24 03:46 | 50.49368 | 14.51081 | 5016 ft | 270 kts | 178° |
| 2026-04-24 03:46 | 50.47447 | 14.51344 | 5011 ft | 271 kts | 177° |
| 2026-04-24 03:46 | 50.45611 | 14.51623 | 5009 ft | 270 kts | 176° |
| 2026-04-24 03:47 | 50.43717 | 14.51923 | 5003 ft | 270 kts | 176° |
| 2026-04-24 03:47 | 50.41838 | 14.52226 | 5012 ft | 271 kts | 176° |
| 2026-04-24 03:47 | 50.39992 | 14.52521 | 4931 ft | 259 kts | 178° |
| 2026-04-24 03:47 | 50.38301 | 14.52252 | 4497 ft | 245 kts | 204° |
| 2026-04-24 03:48 | 50.36968 | 14.50777 | 4126 ft | 236 kts | 236° |
| 2026-04-24 03:48 | 50.36265 | 14.48567 | 4197 ft | 234 kts | 250° |
| 2026-04-24 03:48 | 50.35600 | 14.46170 | 4247 ft | 233 kts | 248° |
| 2026-04-24 03:48 | 50.34933 | 14.43919 | 4053 ft | 231 kts | 248° |
| 2026-04-24 03:49 | 50.34484 | 14.42428 | 4012 ft | 234 kts | 248° |
| 2026-04-24 03:49 | 50.33551 | 14.39333 | 4003 ft | 234 kts | 248° |
| 2026-04-24 03:49 | 50.32863 | 14.37033 | 4010 ft | 234 kts | 248° |
| 2026-04-24 03:49 | 50.32177 | 14.34736 | 4009 ft | 233 kts | 248° |
| 2026-04-24 03:50 | 50.31522 | 14.32538 | 4012 ft | 234 kts | 248° |
| 2026-04-24 03:50 | 50.31219 | 14.31523 | 4001 ft | 234 kts | 248° |
| 2026-04-24 03:50 | 50.30345 | 14.28740 | 4004 ft | 248 kts | 240° |
| 2026-04-24 03:50 | 50.29574 | 14.27421 | 4018 ft | 253 kts | 220° |
| 2026-04-24 03:51 | 50.27932 | 14.26316 | 4004 ft | 262 kts | 191° |
| 2026-04-24 03:51 | 50.26114 | 14.26581 | 4010 ft | 267 kts | 162° |
| 2026-04-24 03:51 | 50.24465 | 14.27898 | 3994 ft | 270 kts | 144° |
| 2026-04-24 03:51 | 50.23250 | 14.30110 | 4006 ft | 271 kts | 115° |
| 2026-04-24 03:52 | 50.22835 | 14.32542 | 4012 ft | 269 kts | 90° |
| 2026-04-24 03:52 | 50.23158 | 14.35340 | 4002 ft | 266 kts | 63° |
| 2026-04-24 03:52 | 50.23988 | 14.37884 | 3997 ft | 264 kts | 60° |
| 2026-04-24 03:52 | 50.24769 | 14.40462 | 4016 ft | 243 kts | 62° |
| 2026-04-24 03:53 | 50.25400 | 14.42659 | 4005 ft | 219 kts | 62° |
| 2026-04-24 03:53 | 50.26029 | 14.44841 | 4001 ft | 219 kts | 62° |
| 2026-04-24 03:53 | 50.26656 | 14.46992 | 4002 ft | 219 kts | 62° |
| 2026-04-24 03:53 | 50.27271 | 14.49086 | 4006 ft | 219 kts | 62° |
| 2026-04-24 03:54 | 50.27900 | 14.51271 | 3999 ft | 220 kts | 67° |
| 2026-04-24 03:54 | 50.28008 | 14.53650 | 4001 ft | 225 kts | 101° |
| 2026-04-24 03:54 | 50.27269 | 14.55765 | 4010 ft | 220 kts | 136° |
| 2026-04-24 03:54 | 50.26045 | 14.56933 | 3997 ft | 208 kts | 160° |
| 2026-04-24 03:55 | 50.24689 | 14.57668 | 3999 ft | 205 kts | 165° |
| 2026-04-24 03:55 | 50.23348 | 14.58358 | 4000 ft | 195 kts | 167° |
| 2026-04-24 03:55 | 50.22030 | 14.58338 | 3999 ft | 189 kts | 202° |
| 2026-04-24 03:55 | 50.21027 | 14.57350 | 4000 ft | 182 kts | 228° |
| 2026-04-24 03:56 | 50.20262 | 14.55808 | 3993 ft | 179 kts | 242° |
| 2026-04-24 03:56 | 50.19664 | 14.54102 | 4001 ft | 177 kts | 247° |
| 2026-04-24 03:56 | 50.19120 | 14.52355 | 3999 ft | 178 kts | 248° |
| 2026-04-24 03:56 | 50.18599 | 14.50640 | 3998 ft | 177 kts | 249° |
| 2026-04-24 03:57 | 50.18063 | 14.48888 | 3808 ft | 185 kts | 248° |
| 2026-04-24 03:57 | 50.17530 | 14.47131 | 3446 ft | 169 kts | 249° |
| 2026-04-24 03:57 | 50.17041 | 14.45448 | 2990 ft | 168 kts | 250° |
| 2026-04-24 03:57 | 50.16553 | 14.43812 | 2681 ft | 164 kts | 249° |
| 2026-04-24 03:58 | 50.16077 | 14.42209 | 2326 ft | 164 kts | 249° |
| 2026-04-24 03:58 | 50.15607 | 14.40638 | 2151 ft | 155 kts | 249° |
| 2026-04-24 03:58 | 50.15177 | 14.39125 | 1983 ft | 151 kts | 250° |
| 2026-04-24 03:58 | 50.14767 | 14.37660 | 1898 ft | 146 kts | 248° |
| 2026-04-24 03:59 | 50.14331 | 14.36233 | 1831 ft | 146 kts | 246° |
| 2026-04-24 03:59 | 50.13900 | 14.34812 | 1712 ft | 145 kts | 245° |
| 2026-04-24 03:59 | 50.13423 | 14.33461 | 1624 ft | 139 kts | 242° |
| 2026-04-24 03:59 | 50.13005 | 14.32131 | 1536 ft | 137 kts | 248° |
| 2026-04-24 04:00 | 50.12630 | 14.30759 | 1453 ft | 138 kts | 245° |
| 2026-04-24 04:00 | 50.12215 | 14.29395 | 1317 ft | 141 kts | 245° |
| 2026-04-24 04:00 | 50.11807 | 14.28023 | 1256 ft | 140 kts | 244° |
| 2026-04-24 04:00 | 50.11469 | 14.26932 | 1198 ft | 132 kts | 244° |
| 2026-04-24 04:01 | 50.11278 | 14.26292 | 1166 ft | 118 kts | 245° |
| 2026-04-24 04:01 | 50.11091 | 14.25652 | 1168 ft | 19 kts | 244° |
| 2026-04-24 04:01 | 50.11057 | 14.25574 | 1169 ft | 4 kts | 235° |
| 2026-04-24 04:01 | 50.11048 | 14.25554 | 1169 ft | 5 kts | 235° |
| 2026-04-24 04:02 | 50.11020 | 14.25499 | 1171 ft | 10 kts | 226° |
| 2026-04-24 04:02 | 50.10971 | 14.25425 | 1172 ft | 11 kts | 227° |
| 2026-04-24 04:02 | 50.10968 | 14.25420 | 1173 ft | 0 kts | 227° |
| 2026-04-24 04:05 | 50.10959 | 14.25410 | 1173 ft | 4 kts | 216° |
| 2026-04-24 04:05 | 50.10913 | 14.25363 | 1172 ft | 12 kts | 207° |
| 2026-04-24 04:05 | 50.10855 | 14.25341 | 1171 ft | 0 kts | 182° |
| 2026-04-24 04:06 | 50.10835 | 14.25340 | 1172 ft | 8 kts | 182° |
| 2026-04-24 04:06 | 50.10772 | 14.25367 | 1169 ft | 13 kts | 157° |
| 2026-04-24 04:07 | 50.10742 | 14.25391 | 1169 ft | 13 kts | 142° |
| 2026-04-24 04:07 | 50.10694 | 14.25487 | 1169 ft | 13 kts | 124° |
| 2026-04-24 04:07 | 50.10697 | 14.25623 | 1173 ft | 15 kts | 47° |
| 2026-04-24 04:07 | 50.10757 | 14.25691 | 1173 ft | 11 kts | 34° |
| 2026-04-24 04:08 | 50.10845 | 14.25785 | 1169 ft | 20 kts | 34° |
| 2026-04-24 04:08 | 50.10872 | 14.25816 | 1166 ft | 0 kts | 48° |
| 2026-04-24 04:08 | 50.10872 | 14.25821 | 1166 ft | 0 kts | 75° |
| 2026-04-24 04:08 | 50.10870 | 14.25841 | 1171 ft | 5 kts | 97° |
| 2026-04-24 04:09 | 50.10847 | 14.25904 | 1168 ft | 9 kts | 123° |
| 2026-04-24 04:09 | 50.10823 | 14.25958 | 1171 ft | 3 kts | 125° |
| 2026-04-24 04:09 | 50.10819 | 14.25996 | 1171 ft | 5 kts | 78° |
| 2026-04-24 04:09 | 50.10857 | 14.26055 | 1173 ft | 12 kts | 39° |
| 2026-04-24 04:10 | 50.10848 | 14.26156 | 1171 ft | 11 kts | 131° |
| 2026-04-24 04:10 | 50.10829 | 14.26204 | 1171 ft | 2 kts | 126° |
| 2026-04-24 04:10 | 50.10812 | 14.26251 | 1169 ft | 8 kts | 111° |
| 2026-04-24 04:11 | 50.10838 | 14.26454 | 1171 ft | 10 kts | 75° |
| 2026-04-24 04:11 | 50.10840 | 14.26461 | 1172 ft | 0 kts | 71° |